Time;durP1;ratioP1;P1;durP2;ratioP2;P2;SDS_P1;SDS_P2;PMS_P1;PMS_P2;Temp;Humidity;BMP_temperature;BMP_pressure;BME280_temperature;BME280_humidity;BME280_pressure;Samples;Min_cycle;Max_cycle;Signal;HPM_P1;HPM_P2
2023/09/11 00:00:26;;;;;;;;;;;;;;;;;;5042808;28;19918;-81
2023/09/11 00:02:51;;;;;;;;;;;;;;;;;;5054849;28;19972;-81
2023/09/11 00:05:17;;;;;;;;;;;;;;;;;;5044521;28;19920;-81
2023/09/11 00:07:42;;;;;;;;;;;;;;;;;;4994688;28;20148;-81
2023/09/11 00:10:07;;;;;;;;;;;;;;;;;;5053106;28;21066;-81
2023/09/11 00:12:33;;;;;;;;;;;;;;;;;;5020239;28;19921;-80
2023/09/11 00:14:58;;;;;;;;;;;;;;;;;;5053113;28;20309;-81
2023/09/11 00:17:23;;;;;;;;;;;;;;;;;;5036703;28;20025;-82
2023/09/11 00:19:49;;;;;;;;;;;;;;;;;;5053916;28;19924;-81
2023/09/11 00:22:14;;;;;;;;;;;;;;;;;;5052795;28;19916;-81
2023/09/11 00:24:40;;;;;;;;;;;;;;;;;;5025653;28;20388;-81
2023/09/11 00:27:05;;;;;;;;;;;;;;;;;;5055102;28;20387;-82
2023/09/11 00:29:30;;;;;;;;;;;;;;;;;;5010540;28;19925;-82
2023/09/11 00:31:56;;;;;;;;;;;;;;;;;;5052698;28;19917;-81
2023/09/11 00:34:21;;;;;;;;;;;;;;;;;;5022880;28;19944;-81
2023/09/11 00:36:46;;;;;;;;;;;;;;;;;;5052750;28;20003;-82
2023/09/11 00:39:12;;;;;;;;;;;;;;;;;;5039116;28;19921;-81
2023/09/11 00:41:37;;;;;;;;;;;;;;;;;;5039443;28;20600;-81
2023/09/11 00:44:07;;;;;;;;;;;;;;;;;;5053544;28;19921;-80
2023/09/11 00:46:32;;;;;;;;;;;;;;;;;;5023368;28;19928;-80
2023/09/11 00:48:58;;;;;;;;;;;;;;;;;;5020709;28;19916;-80
2023/09/11 00:51:24;;;;;;;;;;;;;;;;;;5053634;28;20231;-81
2023/09/11 00:53:49;;;;;;;;;;;;;;;;;;5054330;28;19921;-82
2023/09/11 00:56:14;;;;;;;;;;;;;;;;;;5043899;28;19921;-81
2023/09/11 00:58:39;;;;;;;;;;;;;;;;;;5021277;28;20266;-81
2023/09/11 01:01:09;;;;;;;;;;;;;;;;;;5022088;28;19936;-80
2023/09/11 01:03:34;;;;;;;;;;;;;;;;;;5011062;28;19923;-81
2023/09/11 01:06:05;;;;;;;;;;;;;;;;;;5022647;28;19921;-81
2023/09/11 01:08:31;;;;;;;;;;;;;;;;;;5014044;28;20347;-81
2023/09/11 01:10:56;;;;;;;;;;;;;;;;;;5001641;28;19924;-80
2023/09/11 01:13:22;;;;;;;;;;;;;;;;;;5032915;28;20075;-81
2023/09/11 01:15:53;;;;;;;;;;;;;;;;;;5031298;28;19921;-81
2023/09/11 01:18:22;;;;;;;;;;;;;;;;;;5009477;28;19943;-81
2023/09/11 01:20:54;;;;;;;;;;;;;;;;;;5022956;28;20489;-81
2023/09/11 01:23:35;;;;;;;;;;;;;;;;;;5053440;28;19921;-80
2023/09/11 01:26:05;;;;;;;;;;;;;;;;;;5051289;28;19928;-81
2023/09/11 01:28:37;;;;;;;;;;;;;;;;;;5037000;28;19943;-80
2023/09/11 01:31:02;;;;;;;;;;;;;;;;;;5033805;28;19952;-81
2023/09/11 01:33:27;;;;;;;;;;;;;;;;;;5029476;28;20501;-81
2023/09/11 01:35:53;;;;;;;;;;;;;;;;;;5042320;28;19917;-80
2023/09/11 01:38:21;;;;;;;;;;;;;;;;;;5045498;28;20007;-81
2023/09/11 01:40:51;;;;;;;;;;;;;;;;;;5027085;28;19975;-80
2023/09/11 01:43:16;;;;;;;;;;;;;;;;;;5027590;28;20372;-80
2023/09/11 01:45:42;;;;;;;;;;;;;;;;;;5051970;28;19975;-81
2023/09/11 01:48:07;;;;;;;;;;;;;;;;;;5043684;28;19927;-80
2023/09/11 01:50:36;;;;;;;;;;;;;;;;;;5050632;28;20307;-80
2023/09/11 01:53:01;;;;;;;;;;;;;;;;;;5036154;28;19932;-80
2023/09/11 01:55:31;;;;;;;;;;;;;;;;;;5042262;28;20368;-81
2023/09/11 01:57:56;;;;;;;;;;;;;;;;;;5025139;28;19928;-81
2023/09/11 02:00:22;;;;;;;;;;;;;;;;;;5019730;28;20685;-81
2023/09/11 02:02:51;;;;;;;;;;;;;;;;;;5019482;28;19971;-80
2023/09/11 02:05:17;;;;;;;;;;;;;;;;;;4992954;28;19958;-82
2023/09/11 02:07:43;;;;;;;;;;;;;;;;;;5004327;28;19984;-80
2023/09/11 02:10:09;;;;;;;;;;;;;;;;;;5035798;28;20020;-81
2023/09/11 02:12:34;;;;;;;;;;;;;;;;;;4992737;28;19965;-81
2023/09/11 02:14:59;;;;;;;;;;;;;;;;;;5041980;28;19967;-80
2023/09/11 02:17:28;;;;;;;;;;;;;;;;;;5002388;28;19936;-81
2023/09/11 02:19:53;;;;;;;;;;;;;;;;;;5028115;28;19956;-80
2023/09/11 02:22:18;;;;;;;;;;;;;;;;;;5025056;28;19917;-84
2023/09/11 02:24:44;;;;;;;;;;;;;;;;;;5050449;28;20027;-80
2023/09/11 02:27:09;;;;;;;;;;;;;;;;;;5050541;28;20320;-80
2023/09/11 02:29:34;;;;;;;;;;;;;;;;;;5040902;28;19948;-80
2023/09/11 02:32:00;;;;;;;;;;;;;;;;;;5002489;28;19924;-80
2023/09/11 02:34:26;;;;;;;;;;;;;;;;;;5051871;28;19921;-80
2023/09/11 02:36:51;;;;;;;;;;;;;;;;;;5041773;28;19926;-80
2023/09/11 02:39:16;;;;;;;;;;;;;;;;;;5018676;28;19916;-82
2023/09/11 02:41:41;;;;;;;;;;;;;;;;;;5003235;28;19928;-81
2023/09/11 02:44:09;;;;;;;;;;;;;;;;;;5004501;28;20281;-80
2023/09/11 02:46:34;;;;;;;;;;;;;;;;;;5044732;28;20445;-81
2023/09/11 02:49:00;;;;;;;;;;;;;;;;;;5049669;28;19924;-80
2023/09/11 02:51:27;;;;;;;;;;;;;;;;;;5043538;28;19917;-81
2023/09/11 02:53:55;;;;;;;;;;;;;;;;;;5030913;28;19925;-81
2023/09/11 02:56:21;;;;;;;;;;;;;;;;;;5038949;28;20138;-81
2023/09/11 02:58:49;;;;;;;;;;;;;;;;;;5044481;28;19944;-80
2023/09/11 03:01:14;;;;;;;;;;;;;;;;;;5050907;28;19921;-81
2023/09/11 03:03:39;;;;;;;;;;;;;;;;;;5054014;28;19943;-81
2023/09/11 03:06:05;;;;;;;;;;;;;;;;;;5044292;28;19921;-81
2023/09/11 03:08:30;;;;;;;;;;;;;;;;;;5034307;28;20420;-80
2023/09/11 03:11:04;;;;;;;;;;;;;;;;;;5016272;28;20304;-80
2023/09/11 03:13:29;;;;;;;;;;;;;;;;;;5037251;28;19921;-81
2023/09/11 03:15:55;;;;;;;;;;;;;;;;;;5053677;28;19927;-81
2023/09/11 03:18:20;;;;;;;;;;;;;;;;;;5047275;28;19925;-81
2023/09/11 03:20:45;;;;;;;;;;;;;;;;;;5025390;28;19920;-82
2023/09/11 03:23:11;;;;;;;;;;;;;;;;;;5054666;28;20288;-81
2023/09/11 03:25:37;;;;;;;;;;;;;;;;;;5053746;28;20008;-81
2023/09/11 03:28:03;;;;;;;;;;;;;;;;;;5021965;28;20042;-81
2023/09/11 03:30:28;;;;;;;;;;;;;;;;;;5051492;28;19925;-81
2023/09/11 03:32:53;;;;;;;;;;;;;;;;;;5045951;28;19971;-81
2023/09/11 03:35:19;;;;;;;;;;;;;;;;;;5054371;28;19929;-82
2023/09/11 03:37:44;;;;;;;;;;;;;;;;;;5022496;28;19996;-81
2023/09/11 03:40:13;;;;;;;;;;;;;;;;;;5056602;28;20019;-81
2023/09/11 03:42:39;;;;;;;;;;;;;;;;;;5013076;28;19925;-80
2023/09/11 03:45:07;;;;;;;;;;;;;;;;;;5043535;28;19917;-81
2023/09/11 03:47:32;;;;;;;;;;;;;;;;;;4995444;28;19921;-81
2023/09/11 03:49:58;;;;;;;;;;;;;;;;;;5019523;28;20361;-81
2023/09/11 03:52:23;;;;;;;;;;;;;;;;;;5054037;28;19970;-81
2023/09/11 03:54:48;;;;;;;;;;;;;;;;;;5034240;28;20008;-80
2023/09/11 03:57:14;;;;;;;;;;;;;;;;;;5024912;28;19940;-81
2023/09/11 03:59:39;;;;;;;;;;;;;;;;;;5045661;28;19917;-81
2023/09/11 04:02:04;;;;;;;;;;;;;;;;;;5043792;28;19921;-81
2023/09/11 04:04:30;;;;;;;;;;;;;;;;;;5054853;28;19928;-81
2023/09/11 04:06:56;;;;;;;;;;;;;;;;;;5046066;28;19921;-81
2023/09/11 04:09:21;;;;;;;;;;;;;;;;;;5018515;28;19939;-81
2023/09/11 04:11:46;;;;;;;;;;;;;;;;;;5043291;28;19920;-81
2023/09/11 04:14:11;;;;;;;;;;;;;;;;;;5022718;28;19925;-81
2023/09/11 04:16:37;;;;;;;;;;;;;;;;;;5052468;28;19920;-81
2023/09/11 04:19:02;;;;;;;;;;;;;;;;;;5045866;28;20400;-82
2023/09/11 04:21:27;;;;;;;;;;;;;;;;;;5033666;28;19921;-81
2023/09/11 04:23:53;;;;;;;;;;;;;;;;;;5021158;28;19951;-78
2023/09/11 04:26:21;;;;;;;;;;;;;;;;;;5041524;28;20369;-80
2023/09/11 04:28:47;;;;;;;;;;;;;;;;;;5043335;28;19928;-81
2023/09/11 04:31:12;;;;;;;;;;;;;;;;;;5022194;28;20364;-78
2023/09/11 04:36:22;;;;;;;;;;;;;;;;;;5023109;28;19921;-78
2023/09/11 04:38:48;;;;;;;;;;;;;;;;;;5057569;28;20329;-78
2023/09/11 04:41:18;;;;;;;;;;;;;;;;;;5054069;28;19986;-77
2023/09/11 04:43:43;;;;;;;;;;;;;;;;;;5011524;28;19920;-78
2023/09/11 04:46:09;;;;;;;;;;;;;;;;;;5043854;28;20328;-77
2023/09/11 04:48:36;;;;;;;;;;;;;;;;;;5019161;28;19929;-77
2023/09/11 04:51:01;;;;;;;;;;;;;;;;;;5009252;28;19925;-77
2023/09/11 04:53:27;;;;;;;;;;;;;;;;;;5052874;28;19917;-76
2023/09/11 04:55:52;;;;;;;;;;;;;;;;;;5051714;28;20475;-76
2023/09/11 04:58:17;;;;;;;;;;;;;;;;;;5038382;28;19944;-75
2023/09/11 05:00:45;;;;;;;;;;;;;;;;;;5051629;28;19956;-75
2023/09/11 05:03:10;;;;;;;;;;;;;;;;;;5034796;28;19924;-76
2023/09/11 05:05:40;;;;;;;;;;;;;;;;;;5050363;28;19920;-75
2023/09/11 05:08:06;;;;;;;;;;;;;;;;;;5051631;28;19960;-76
2023/09/11 05:10:31;;;;;;;;;;;;;;;;;;5032631;28;19971;-75
2023/09/11 05:12:59;;;;;;;;;;;;;;;;;;5023059;28;20432;-74
2023/09/11 05:15:25;;;;;;;;;;;;;;;;;;5035359;28;19971;-76
2023/09/11 05:17:50;;;;;;;;;;;;;;;;;;5034549;28;19969;-76
2023/09/11 05:20:16;;;;;;;;;;;;;;;;;;5048457;28;19921;-76
2023/09/11 05:22:41;;;;;;;;;;;;;;;;;;5050856;28;19921;-76
2023/09/11 05:25:07;;;;;;;;;;;;;;;;;;5019858;28;19921;-76
2023/09/11 05:27:32;;;;;;;;;;;;;;;;;;5046945;28;19955;-76
2023/09/11 05:29:57;;;;;;;;;;;;;;;;;;5016883;28;20460;-76
2023/09/11 05:32:23;;;;;;;;;;;;;;;;;;5045958;28;20211;-75
2023/09/11 05:34:48;;;;;;;;;;;;;;;;;;5019109;28;19928;-75
2023/09/11 05:37:14;;;;;;;;;;;;;;;;;;5017735;28;19961;-76
2023/09/11 05:39:43;;;;;;;;;;;;;;;;;;5033632;28;20290;-75
2023/09/11 05:42:09;;;;;;;;;;;;;;;;;;5033873;28;19921;-76
2023/09/11 05:44:34;;;;;;;;;;;;;;;;;;5047693;28;20275;-76
2023/09/11 05:46:59;;;;;;;;;;;;;;;;;;5045169;28;19925;-76
2023/09/11 05:49:25;;;;;;;;;;;;;;;;;;5047960;28;19917;-76
2023/09/11 05:51:50;;;;;;;;;;;;;;;;;;5032468;28;20305;-76
2023/09/11 05:54:15;;;;;;;;;;;;;;;;;;5047888;28;20254;-76
2023/09/11 05:56:41;;;;;;;;;;;;;;;;;;5016497;28;19975;-77
2023/09/11 05:59:06;;;;;;;;;;;;;;;;;;5049855;28;19921;-75
2023/09/11 06:01:31;;;;;;;;;;;;;;;;;;5047248;28;19935;-74
2023/09/11 06:03:57;;;;;;;;;;;;;;;;;;5021046;28;20431;-75
2023/09/11 06:06:22;;;;;;;;;;;;;;;;;;5014448;28;19925;-74
2023/09/11 06:08:47;;;;;;;;;;;;;;;;;;5036370;28;20016;-75
2023/09/11 06:11:13;;;;;;;;;;;;;;;;;;5041236;28;19921;-76
2023/09/11 06:13:38;;;;;;;;;;;;;;;;;;5016881;28;19931;-75
2023/09/11 06:16:03;;;;;;;;;;;;;;;;;;5052945;28;19948;-75
2023/09/11 06:18:28;;;;;;;;;;;;;;;;;;5051802;28;19956;-76
2023/09/11 06:20:54;;;;;;;;;;;;;;;;;;5020726;28;19921;-75
2023/09/11 06:23:19;;;;;;;;;;;;;;;;;;5052748;28;20479;-75
2023/09/11 06:25:44;;;;;;;;;;;;;;;;;;5002200;28;20003;-76
2023/09/11 06:28:09;;;;;;;;;;;;;;;;;;5043389;28;19921;-76
2023/09/11 06:30:35;;;;;;;;;;;;;;;;;;5052937;28;20434;-76
2023/09/11 06:33:00;;;;;;;;;;;;;;;;;;5020164;28;19920;-76
2023/09/11 06:35:25;;;;;;;;;;;;;;;;;;5050890;28;19925;-76
2023/09/11 06:37:51;;;;;;;;;;;;;;;;;;5051838;28;19921;-75
2023/09/11 06:40:16;;;;;;;;;;;;;;;;;;5050683;28;19971;-78
2023/09/11 06:42:41;;;;;;;;;;;;;;;;;;5038455;28;19921;-76
2023/09/11 06:45:07;;;;;;;;;;;;;;;;;;5019274;28;20431;-75
2023/09/11 06:47:32;;;;;;;;;;;;;;;;;;5051497;28;19967;-76
2023/09/11 06:49:58;;;;;;;;;;;;;;;;;;5034388;28;20424;-76
2023/09/11 06:52:23;;;;;;;;;;;;;;;;;;5050217;28;20492;-76
2023/09/11 06:54:52;;;;;;;;;;;;;;;;;;5003190;28;19925;-75
2023/09/11 06:57:17;;;;;;;;;;;;;;;;;;5046655;28;19926;-76
2023/09/11 06:59:42;;;;;;;;;;;;;;;;;;5014345;28;19925;-76
2023/09/11 07:02:08;;;;;;;;;;;;;;;;;;5034983;28;19952;-76
2023/09/11 07:04:33;;;;;;;;;;;;;;;;;;5037896;28;19921;-76
2023/09/11 07:06:59;;;;;;;;;;;;;;;;;;5050225;28;20368;-76
2023/09/11 07:09:24;;;;;;;;;;;;;;;;;;5034538;28;19925;-76
2023/09/11 07:11:50;;;;;;;;;;;;;;;;;;5017735;28;20416;-75
2023/09/11 07:14:19;;;;;;;;;;;;;;;;;;5011153;28;20008;-76
2023/09/11 07:16:44;;;;;;;;;;;;;;;;;;5049366;28;19964;-76
2023/09/11 07:19:10;;;;;;;;;;;;;;;;;;5050236;28;19992;-76
2023/09/11 07:21:38;;;;;;;;;;;;;;;;;;5030467;28;20334;-76
2023/09/11 07:24:04;;;;;;;;;;;;;;;;;;5038187;28;19922;-77
2023/09/11 07:26:29;;;;;;;;;;;;;;;;;;5031165;28;19924;-76
2023/09/11 07:28:55;;;;;;;;;;;;;;;;;;5053518;28;20380;-76
2023/09/11 07:31:21;;;;;;;;;;;;;;;;;;5021845;28;19920;-76
2023/09/11 07:33:46;;;;;;;;;;;;;;;;;;5044851;28;19970;-75
2023/09/11 07:36:12;;;;;;;;;;;;;;;;;;5038699;28;19989;-76
2023/09/11 07:38:44;;;;;;;;;;;;;;;;;;5029026;28;19921;-76
2023/09/11 07:41:13;;;;;;;;;;;;;;;;;;5002261;28;19927;-74
2023/09/11 07:43:38;;;;;;;;;;;;;;;;;;5011912;28;19968;-77
2023/09/11 07:46:03;;;;;;;;;;;;;;;;;;5035542;28;20026;-76
2023/09/11 07:48:29;;;;;;;;;;;;;;;;;;5030215;28;19921;-75
2023/09/11 07:50:55;;;;;;;;;;;;;;;;;;5021197;28;19955;-75
2023/09/11 07:53:26;;;;;;;;;;;;;;;;;;5041682;28;19962;-76
2023/09/11 07:55:51;;;;;;;;;;;;;;;;;;5026153;28;20654;-76
2023/09/11 07:58:16;;;;;;;;;;;;;;;;;;4997109;28;20013;-76
2023/09/11 08:00:44;;;;;;;;;;;;;;;;;;5020858;28;19921;-76
2023/09/11 08:03:10;;;;;;;;;;;;;;;;;;5047198;28;20414;-76
2023/09/11 08:05:35;;;;;;;;;;;;;;;;;;5036494;28;20016;-76
2023/09/11 08:08:07;;;;;;;;;;;;;;;;;;5047009;28;19925;-76
2023/09/11 08:10:35;;;;;;;;;;;;;;;;;;5023446;28;19929;-76
2023/09/11 08:13:00;;;;;;;;;;;;;;;;;;5037435;28;19980;-77
2023/09/11 08:15:28;;;;;;;;;;;;;;;;;;5022705;28;20407;-78
2023/09/11 08:17:53;;;;;;;;;;;;;;;;;;5051643;28;19928;-77
2023/09/11 08:20:18;;;;;;;;;;;;;;;;;;5009428;28;19917;-78
2023/09/11 08:22:44;;;;;;;;;;;;;;;;;;5032023;28;19924;-77
2023/09/11 08:25:10;;;;;;;;;;;;;;;;;;5013360;28;20333;-77
2023/09/11 08:27:38;;;;;;;;;;;;;;;;;;5015793;28;19917;-77
2023/09/11 08:30:04;;;;;;;;;;;;;;;;;;5047832;28;19921;-77
2023/09/11 08:32:29;;;;;;;;;;;;;;;;;;5017654;28;20412;-77
2023/09/11 08:34:54;;;;;;;;;;;;;;;;;;5013864;28;19921;-77
2023/09/11 08:37:21;;;;;;;;;;;;;;;;;;5022639;28;19928;-77
2023/09/11 08:39:47;;;;;;;;;;;;;;;;;;5023970;28;20357;-77
2023/09/11 08:42:12;;;;;;;;;;;;;;;;;;5022080;28;19916;-77
2023/09/11 08:44:37;;;;;;;;;;;;;;;;;;5028658;28;19951;-76
2023/09/11 08:47:03;;;;;;;;;;;;;;;;;;5023460;28;19920;-77
2023/09/11 08:49:30;;;;;;;;;;;;;;;;;;5022980;28;20062;-77
2023/09/11 08:51:56;;;;;;;;;;;;;;;;;;5029614;28;20322;-76
2023/09/11 08:54:22;;;;;;;;;;;;;;;;;;5035202;28;19925;-77
2023/09/11 08:56:48;;;;;;;;;;;;;;;;;;5029127;28;19920;-77
2023/09/11 08:59:14;;;;;;;;;;;;;;;;;;5024176;28;20361;-77
2023/09/11 09:01:39;;;;;;;;;;;;;;;;;;5044645;28;20474;-77
2023/09/11 09:04:04;;;;;;;;;;;;;;;;;;5051448;28;20007;-77
2023/09/11 09:06:30;;;;;;;;;;;;;;;;;;5024915;28;19925;-77
2023/09/11 09:08:55;;;;;;;;;;;;;;;;;;5032590;28;20055;-77
2023/09/11 09:11:20;;;;;;;;;;;;;;;;;;4999515;28;19932;-77
2023/09/11 09:13:46;;;;;;;;;;;;;;;;;;4997993;28;20461;-77
2023/09/11 09:16:11;;;;;;;;;;;;;;;;;;5019796;28;19925;-77
2023/09/11 09:18:36;;;;;;;;;;;;;;;;;;5036699;28;19985;-77
2023/09/11 09:21:04;;;;;;;;;;;;;;;;;;5014816;28;19917;-77
2023/09/11 09:23:35;;;;;;;;;;;;;;;;;;5000027;28;20475;-77
2023/09/11 09:26:06;;;;;;;;;;;;;;;;;;5004358;28;19925;-76
2023/09/11 09:28:32;;;;;;;;;;;;;;;;;;4990508;28;20432;-81
2023/09/11 09:30:58;;;;;;;;;;;;;;;;;;5004587;28;19918;-80
2023/09/11 09:33:23;;;;;;;;;;;;;;;;;;5017522;28;19927;-80
2023/09/11 09:35:48;;;;;;;;;;;;;;;;;;5024531;28;19928;-80
2023/09/11 09:38:14;;;;;;;;;;;;;;;;;;5015942;28;19926;-80
2023/09/11 09:40:39;;;;;;;;;;;;;;;;;;5002830;28;20459;-80
2023/09/11 09:43:06;;;;;;;;;;;;;;;;;;5004522;28;19943;-80
2023/09/11 09:45:42;;;;;;;;;;;;;;;;;;5049032;28;20040;-80
2023/09/11 09:48:18;;;;;;;;;;;;;;;;;;4999207;28;19987;-80
2023/09/11 09:50:51;;;;;;;;;;;;;;;;;;4997905;28;19921;-80
2023/09/11 09:53:22;;;;;;;;;;;;;;;;;;4993659;28;20285;-80
2023/09/11 09:55:48;;;;;;;;;;;;;;;;;;5022235;28;20401;-79
2023/09/11 09:58:13;;;;;;;;;;;;;;;;;;5026014;28;19972;-80
2023/09/11 10:00:38;;;;;;;;;;;;;;;;;;5046709;28;19975;-79
2023/09/11 10:03:03;;;;;;;;;;;;;;;;;;5020075;28;19979;-79
2023/09/11 10:05:29;;;;;;;;;;;;;;;;;;5010648;28;19921;-79
2023/09/11 10:07:55;;;;;;;;;;;;;;;;;;4990926;28;19972;-79
2023/09/11 10:10:22;;;;;;;;;;;;;;;;;;5006912;28;19930;-79
2023/09/11 10:12:53;;;;;;;;;;;;;;;;;;5008236;28;20026;-80
2023/09/11 10:15:19;;;;;;;;;;;;;;;;;;5008834;28;20008;-78
2023/09/11 10:17:44;;;;;;;;;;;;;;;;;;4999976;28;19922;-79
2023/09/11 10:20:10;;;;;;;;;;;;;;;;;;5013874;28;19953;-79
2023/09/11 10:22:35;;;;;;;;;;;;;;;;;;4998806;28;19924;-79
2023/09/11 10:25:00;;;;;;;;;;;;;;;;;;5017088;28;19926;-79
2023/09/11 10:27:26;;;;;;;;;;;;;;;;;;5025893;28;19968;-79
2023/09/11 10:29:54;;;;;;;;;;;;;;;;;;4999547;28;19972;-79
2023/09/11 10:32:23;;;;;;;;;;;;;;;;;;4999901;28;20036;-80
2023/09/11 10:34:51;;;;;;;;;;;;;;;;;;4989057;28;20455;-80
2023/09/11 10:37:16;;;;;;;;;;;;;;;;;;4985680;28;19922;-79
2023/09/11 10:39:41;;;;;;;;;;;;;;;;;;5002716;28;19918;-80
2023/09/11 10:42:09;;;;;;;;;;;;;;;;;;5022187;28;19945;-79
2023/09/11 10:44:36;;;;;;;;;;;;;;;;;;4985364;28;19921;-80
2023/09/11 10:47:03;;;;;;;;;;;;;;;;;;5009344;28;19920;-80
2023/09/11 10:49:28;;;;;;;;;;;;;;;;;;4995123;28;19918;-80
2023/09/11 10:51:53;;;;;;;;;;;;;;;;;;5019160;28;20015;-80
2023/09/11 10:54:20;;;;;;;;;;;;;;;;;;4987062;28;19921;-81
2023/09/11 10:56:45;;;;;;;;;;;;;;;;;;5009321;28;19921;-80
2023/09/11 10:59:11;;;;;;;;;;;;;;;;;;5033532;28;19945;-80
2023/09/11 11:01:36;;;;;;;;;;;;;;;;;;5014281;28;19960;-80
2023/09/11 11:04:04;;;;;;;;;;;;;;;;;;4994782;28;20012;-80
2023/09/11 11:06:31;;;;;;;;;;;;;;;;;;5011339;28;19964;-80
2023/09/11 11:08:57;;;;;;;;;;;;;;;;;;4991254;28;20012;-80
2023/09/11 11:11:25;;;;;;;;;;;;;;;;;;4983311;28;19930;-80
2023/09/11 11:14:09;;;;;;;;;;;;;;;;;;4967058;28;19929;-80
2023/09/11 11:16:36;;;;;;;;;;;;;;;;;;4989080;28;19928;-80
2023/09/11 11:19:01;;;;;;;;;;;;;;;;;;4985154;28;19918;-80
2023/09/11 11:21:36;;;;;;;;;;;;;;;;;;5008781;28;19944;-80
2023/09/11 11:24:04;;;;;;;;;;;;;;;;;;4999346;28;20282;-81
2023/09/11 11:26:30;;;;;;;;;;;;;;;;;;4999436;28;19922;-81
2023/09/11 11:28:56;;;;;;;;;;;;;;;;;;4995742;28;19929;-80
2023/09/11 11:31:22;;;;;;;;;;;;;;;;;;4983079;28;19972;-80
2023/09/11 11:33:49;;;;;;;;;;;;;;;;;;4999614;28;20703;-79
2023/09/11 11:36:14;;;;;;;;;;;;;;;;;;5004586;28;20044;-80
2023/09/11 11:38:40;;;;;;;;;;;;;;;;;;4992200;28;20017;-80
2023/09/11 11:41:07;;;;;;;;;;;;;;;;;;4986652;28;19922;-80
2023/09/11 11:43:32;;;;;;;;;;;;;;;;;;5001242;28;19975;-80
2023/09/11 11:45:58;;;;;;;;;;;;;;;;;;4982021;28;19930;-80
2023/09/11 11:48:23;;;;;;;;;;;;;;;;;;5004537;28;19925;-80
2023/09/11 11:50:49;;;;;;;;;;;;;;;;;;4981941;28;20277;-79
2023/09/11 11:53:14;;;;;;;;;;;;;;;;;;4999895;28;20302;-81
2023/09/11 11:55:40;;;;;;;;;;;;;;;;;;4983608;28;19933;-80
2023/09/11 11:58:08;;;;;;;;;;;;;;;;;;4983810;28;19929;-80
2023/09/11 12:00:34;;;;;;;;;;;;;;;;;;5008718;28;19922;-79
2023/09/11 12:03:07;;;;;;;;;;;;;;;;;;4985026;28;19918;-79
2023/09/11 12:05:32;;;;;;;;;;;;;;;;;;4997554;28;19980;-79
2023/09/11 12:08:01;;;;;;;;;;;;;;;;;;4996760;28;20446;-79
2023/09/11 12:10:26;;;;;;;;;;;;;;;;;;5006028;28;19973;-79
2023/09/11 12:12:51;;;;;;;;;;;;;;;;;;5006050;28;20352;-80
2023/09/11 12:15:17;;;;;;;;;;;;;;;;;;5020388;28;19921;-81
2023/09/11 12:17:46;;;;;;;;;;;;;;;;;;5003419;28;20441;-82
2023/09/11 12:20:13;;;;;;;;;;;;;;;;;;5001176;28;19917;-80
2023/09/11 12:22:38;;;;;;;;;;;;;;;;;;5008575;28;20893;-81
2023/09/11 12:25:04;;;;;;;;;;;;;;;;;;5003452;28;19925;-81
2023/09/11 12:27:29;;;;;;;;;;;;;;;;;;5004166;28;20427;-79
2023/09/11 12:29:57;;;;;;;;;;;;;;;;;;5003542;28;20016;-79
2023/09/11 12:32:33;;;;;;;;;;;;;;;;;;5026292;28;20400;-79
2023/09/11 12:34:58;;;;;;;;;;;;;;;;;;4985372;28;19968;-80
2023/09/11 12:37:24;;;;;;;;;;;;;;;;;;5029257;28;20378;-81
2023/09/11 12:39:52;;;;;;;;;;;;;;;;;;4999520;28;19961;-81
2023/09/11 12:42:18;;;;;;;;;;;;;;;;;;5006604;28;20329;-80
2023/09/11 12:44:43;;;;;;;;;;;;;;;;;;4998867;28;19976;-81
2023/09/11 12:47:11;;;;;;;;;;;;;;;;;;5004285;28;19960;-81
2023/09/11 12:49:36;;;;;;;;;;;;;;;;;;4999130;28;19928;-79
2023/09/11 12:52:02;;;;;;;;;;;;;;;;;;5029598;28;19917;-81
2023/09/11 12:54:31;;;;;;;;;;;;;;;;;;5006237;28;19921;-81
2023/09/11 12:56:57;;;;;;;;;;;;;;;;;;5012361;28;20004;-80
2023/09/11 12:59:23;;;;;;;;;;;;;;;;;;4998363;28;20016;-81
2023/09/11 13:01:55;;;;;;;;;;;;;;;;;;5030983;28;19918;-81
2023/09/11 13:04:22;;;;;;;;;;;;;;;;;;4999503;28;19926;-81
2023/09/11 13:06:47;;;;;;;;;;;;;;;;;;5006237;28;19948;-81
2023/09/11 13:09:12;;;;;;;;;;;;;;;;;;4995304;28;20309;-81
2023/09/11 13:11:37;;;;;;;;;;;;;;;;;;4982593;28;19945;-80
2023/09/11 13:14:07;;;;;;;;;;;;;;;;;;4978649;28;20124;-80
2023/09/11 13:16:33;;;;;;;;;;;;;;;;;;4992127;28;20004;-80
2023/09/11 13:18:58;;;;;;;;;;;;;;;;;;4991562;28;19926;-80
2023/09/11 13:21:23;;;;;;;;;;;;;;;;;;5003052;28;19924;-80
2023/09/11 13:23:49;;;;;;;;;;;;;;;;;;5024215;28;20397;-81
2023/09/11 13:26:14;;;;;;;;;;;;;;;;;;4986049;28;19921;-80
2023/09/11 13:28:40;;;;;;;;;;;;;;;;;;4980060;28;19973;-79
2023/09/11 13:31:08;;;;;;;;;;;;;;;;;;5015761;28;20325;-80
2023/09/11 13:33:33;;;;;;;;;;;;;;;;;;5000470;28;19917;-80
2023/09/11 13:35:58;;;;;;;;;;;;;;;;;;4982855;28;19925;-80
2023/09/11 13:38:24;;;;;;;;;;;;;;;;;;4976551;28;20255;-80
2023/09/11 13:40:49;;;;;;;;;;;;;;;;;;5000391;28;19933;-80
2023/09/11 13:43:14;;;;;;;;;;;;;;;;;;4981168;28;19921;-82
2023/09/11 13:45:39;;;;;;;;;;;;;;;;;;4982108;28;19929;-81
2023/09/11 13:48:05;;;;;;;;;;;;;;;;;;5012708;28;19965;-82
2023/09/11 13:50:36;;;;;;;;;;;;;;;;;;4977919;28;19926;-81
2023/09/11 13:53:01;;;;;;;;;;;;;;;;;;5010402;28;19926;-81
2023/09/11 13:55:29;;;;;;;;;;;;;;;;;;4970542;28;20792;-80
2023/09/11 13:57:54;;;;;;;;;;;;;;;;;;4984942;28;19936;-80
2023/09/11 14:00:20;;;;;;;;;;;;;;;;;;4975471;28;19921;-81
2023/09/11 14:02:45;;;;;;;;;;;;;;;;;;4984987;28;20313;-80
2023/09/11 14:05:10;;;;;;;;;;;;;;;;;;4994907;28;20394;-81
2023/09/11 14:07:36;;;;;;;;;;;;;;;;;;4996305;28;19921;-80
2023/09/11 14:10:01;;;;;;;;;;;;;;;;;;4993345;28;20412;-80
2023/09/11 14:12:26;;;;;;;;;;;;;;;;;;5011105;28;20372;-80
2023/09/11 14:14:52;;;;;;;;;;;;;;;;;;5018557;28;19921;-80
2023/09/11 14:17:17;;;;;;;;;;;;;;;;;;5011934;28;19952;-81
2023/09/11 14:19:42;;;;;;;;;;;;;;;;;;5019033;28;20376;-80
2023/09/11 14:22:08;;;;;;;;;;;;;;;;;;5017792;28;19928;-80
2023/09/11 14:24:34;;;;;;;;;;;;;;;;;;5028166;28;19966;-80
2023/09/11 14:26:59;;;;;;;;;;;;;;;;;;4998807;28;19972;-81
2023/09/11 14:29:30;;;;;;;;;;;;;;;;;;5032302;28;19999;-81
2023/09/11 14:31:55;;;;;;;;;;;;;;;;;;4984179;28;20107;-80
2023/09/11 14:34:20;;;;;;;;;;;;;;;;;;5022664;28;20004;-80
2023/09/11 14:36:46;;;;;;;;;;;;;;;;;;5016609;28;19921;-81
2023/09/11 14:39:11;;;;;;;;;;;;;;;;;;5037654;28;19933;-81
2023/09/11 14:41:37;;;;;;;;;;;;;;;;;;5027280;28;19925;-82
2023/09/11 14:44:02;;;;;;;;;;;;;;;;;;5008138;28;19921;-81
2023/09/11 14:46:27;;;;;;;;;;;;;;;;;;5024382;28;19917;-81
2023/09/11 14:48:53;;;;;;;;;;;;;;;;;;5017899;28;19921;-81
2023/09/11 14:51:19;;;;;;;;;;;;;;;;;;5011887;28;19918;-81
2023/09/11 14:53:44;;;;;;;;;;;;;;;;;;4986201;28;20377;-81
2023/09/11 14:56:09;;;;;;;;;;;;;;;;;;5020923;28;20047;-80
2023/09/11 14:58:35;;;;;;;;;;;;;;;;;;5009401;28;19933;-80
2023/09/11 15:01:00;;;;;;;;;;;;;;;;;;5019220;28;20003;-81
2023/09/11 15:03:25;;;;;;;;;;;;;;;;;;5011212;28;19974;-81
2023/09/11 15:05:51;;;;;;;;;;;;;;;;;;5020421;28;19963;-80
2023/09/11 15:08:16;;;;;;;;;;;;;;;;;;5030270;28;19927;-81
2023/09/11 15:10:42;;;;;;;;;;;;;;;;;;5032875;28;19995;-79
2023/09/11 15:13:10;;;;;;;;;;;;;;;;;;5020876;28;19921;-79
2023/09/11 15:15:36;;;;;;;;;;;;;;;;;;5019114;28;20443;-79
2023/09/11 15:18:02;;;;;;;;;;;;;;;;;;5008524;28;19917;-79
2023/09/11 15:20:27;;;;;;;;;;;;;;;;;;5016569;28;19925;-79
2023/09/11 15:22:52;;;;;;;;;;;;;;;;;;5021206;28;19922;-79
2023/09/11 15:25:18;;;;;;;;;;;;;;;;;;5019251;28;19917;-79
2023/09/11 15:27:43;;;;;;;;;;;;;;;;;;5014165;28;19917;-79
2023/09/11 15:30:08;;;;;;;;;;;;;;;;;;5012343;28;19925;-79
2023/09/11 15:32:34;;;;;;;;;;;;;;;;;;5018506;28;19921;-79
2023/09/11 15:34:59;;;;;;;;;;;;;;;;;;5018605;28;19932;-79
2023/09/11 15:37:29;;;;;;;;;;;;;;;;;;5021130;28;19983;-79
2023/09/11 15:39:54;;;;;;;;;;;;;;;;;;5038231;28;19932;-79
2023/09/11 15:42:20;;;;;;;;;;;;;;;;;;5038567;28;19921;-80
2023/09/11 15:44:47;;;;;;;;;;;;;;;;;;5015763;28;19921;-79
2023/09/11 15:47:12;;;;;;;;;;;;;;;;;;5044198;28;19972;-79
2023/09/11 15:49:37;;;;;;;;;;;;;;;;;;4992805;28;19968;-79
2023/09/11 15:52:03;;;;;;;;;;;;;;;;;;5031457;28;20285;-80
2023/09/11 15:54:29;;;;;;;;;;;;;;;;;;5035548;28;19980;-79
2023/09/11 15:56:54;;;;;;;;;;;;;;;;;;5019240;28;20512;-79
2023/09/11 15:59:22;;;;;;;;;;;;;;;;;;5004760;28;19925;-79
2023/09/11 16:01:47;;;;;;;;;;;;;;;;;;5032176;28;20365;-79
2023/09/11 16:04:13;;;;;;;;;;;;;;;;;;5019417;28;19918;-79
2023/09/11 16:06:38;;;;;;;;;;;;;;;;;;5003429;28;19925;-80
2023/09/11 16:09:04;;;;;;;;;;;;;;;;;;5018144;28;20012;-79
2023/09/11 16:11:29;;;;;;;;;;;;;;;;;;5006509;28;19991;-79
2023/09/11 16:13:54;;;;;;;;;;;;;;;;;;5002660;28;19918;-80
2023/09/11 16:16:19;;;;;;;;;;;;;;;;;;5022415;28;19979;-80
2023/09/11 16:18:50;;;;;;;;;;;;;;;;;;5019612;28;19921;-80
2023/09/11 16:21:15;;;;;;;;;;;;;;;;;;5020933;28;19921;-80
2023/09/11 16:23:41;;;;;;;;;;;;;;;;;;5002607;28;19932;-80
2023/09/11 16:26:07;;;;;;;;;;;;;;;;;;5017428;28;19952;-80
2023/09/11 16:28:32;;;;;;;;;;;;;;;;;;5035737;28;19956;-80
2023/09/11 16:30:57;;;;;;;;;;;;;;;;;;5015700;28;19918;-80
2023/09/11 16:33:23;;;;;;;;;;;;;;;;;;5020076;28;20216;-80
2023/09/11 16:35:48;;;;;;;;;;;;;;;;;;5007627;28;20935;-80
2023/09/11 16:38:13;;;;;;;;;;;;;;;;;;5007728;28;20376;-80
2023/09/11 16:40:38;;;;;;;;;;;;;;;;;;5007616;28;19976;-80